sensor_id;sensor_type;location;lat;lon;timestamp;temperature;humidity
71254;HTU21D;59019;47.638;18.966;2023-07-13T00:00:02;21.78;96.76
71254;HTU21D;59019;47.638;18.966;2023-07-13T00:02:50;21.54;95.98
71254;HTU21D;59019;47.638;18.966;2023-07-13T00:05:40;21.52;95.20
71254;HTU21D;59019;47.638;18.966;2023-07-13T00:08:29;21.45;96.45
71254;HTU21D;59019;47.638;18.966;2023-07-13T00:11:16;21.15;98.80
71254;HTU21D;59019;47.638;18.966;2023-07-13T00:14:02;20.70;101.24
71254;HTU21D;59019;47.638;18.966;2023-07-13T00:16:48;20.51;103.17
71254;HTU21D;59019;47.638;18.966;2023-07-13T00:19:34;20.44;105.08
71254;HTU21D;59019;47.638;18.966;2023-07-13T00:22:22;20.43;106.98
71254;HTU21D;59019;47.638;18.966;2023-07-13T00:25:11;20.55;109.36
71254;HTU21D;59019;47.638;18.966;2023-07-13T00:27:57;20.66;109.45
71254;HTU21D;59019;47.638;18.966;2023-07-13T00:30:43;20.72;107.88
71254;HTU21D;59019;47.638;18.966;2023-07-13T00:33:29;20.68;107.15
71254;HTU21D;59019;47.638;18.966;2023-07-13T00:36:15;20.39;109.20
71254;HTU21D;59019;47.638;18.966;2023-07-13T00:39:02;20.25;111.13
71254;HTU21D;59019;47.638;18.966;2023-07-13T00:41:49;20.41;109.16
71254;HTU21D;59019;47.638;18.966;2023-07-13T00:44:35;20.46;108.28
71254;HTU21D;59019;47.638;18.966;2023-07-13T00:47:21;20.45;108.45
71254;HTU21D;59019;47.638;18.966;2023-07-13T00:50:10;20.28;110.03
71254;HTU21D;59019;47.638;18.966;2023-07-13T00:52:57;20.17;110.36
71254;HTU21D;59019;47.638;18.966;2023-07-13T00:55:43;20.10;114.02
71254;HTU21D;59019;47.638;18.966;2023-07-13T00:58:30;20.03;116.07
71254;HTU21D;59019;47.638;18.966;2023-07-13T01:01:16;20.00;116.41
71254;HTU21D;59019;47.638;18.966;2023-07-13T01:04:02;20.12;115.83
71254;HTU21D;59019;47.638;18.966;2023-07-13T01:06:49;20.16;114.35
71254;HTU21D;59019;47.638;18.966;2023-07-13T01:09:34;20.24;113.45
71254;HTU21D;59019;47.638;18.966;2023-07-13T01:12:20;20.25;114.54
71254;HTU21D;59019;47.638;18.966;2023-07-13T01:18:38;20.18;109.53
71254;HTU21D;59019;47.638;18.966;2023-07-13T01:21:25;20.06;108.94
71254;HTU21D;59019;47.638;18.966;2023-07-13T01:24:11;20.00;109.08
71254;HTU21D;59019;47.638;18.966;2023-07-13T01:26:57;20.00;109.44
71254;HTU21D;59019;47.638;18.966;2023-07-13T01:29:44;19.98;109.14
71254;HTU21D;59019;47.638;18.966;2023-07-13T01:32:33;19.71;109.97
71254;HTU21D;59019;47.638;18.966;2023-07-13T01:35:19;19.67;108.57
71254;HTU21D;59019;47.638;18.966;2023-07-13T01:38:05;19.51;111.01
71254;HTU21D;59019;47.638;18.966;2023-07-13T01:40:52;19.37;114.38
71254;HTU21D;59019;47.638;18.966;2023-07-13T01:43:38;19.45;-5.73
71254;HTU21D;59019;47.638;18.966;2023-07-13T01:46:24;19.42;115.55
71254;HTU21D;59019;47.638;18.966;2023-07-13T01:49:10;19.48;117.13
71254;HTU21D;59019;47.638;18.966;2023-07-13T01:51:56;19.50;111.26
71254;HTU21D;59019;47.638;18.966;2023-07-13T01:54:42;19.47;111.47
71254;HTU21D;59019;47.638;18.966;2023-07-13T01:57:28;19.41;109.70
71254;HTU21D;59019;47.638;18.966;2023-07-13T02:00:14;19.40;109.67
71254;HTU21D;59019;47.638;18.966;2023-07-13T02:03:00;19.26;109.35
71254;HTU21D;59019;47.638;18.966;2023-07-13T02:05:46;19.28;111.65
71254;HTU21D;59019;47.638;18.966;2023-07-13T02:08:33;19.24;111.54
71254;HTU21D;59019;47.638;18.966;2023-07-13T02:11:19;19.26;112.90
71254;HTU21D;59019;47.638;18.966;2023-07-13T02:14:05;19.25;110.23
71254;HTU21D;59019;47.638;18.966;2023-07-13T02:16:50;19.05;109.70
71254;HTU21D;59019;47.638;18.966;2023-07-13T02:19:36;19.03;115.38
71254;HTU21D;59019;47.638;18.966;2023-07-13T02:22:22;19.03;116.80
71254;HTU21D;59019;47.638;18.966;2023-07-13T02:25:09;19.06;-4.40
71254;HTU21D;59019;47.638;18.966;2023-07-13T02:27:55;18.89;114.91
71254;HTU21D;59019;47.638;18.966;2023-07-13T02:30:41;18.79;114.03
71254;HTU21D;59019;47.638;18.966;2023-07-13T02:33:27;18.84;113.64
71254;HTU21D;59019;47.638;18.966;2023-07-13T02:36:13;18.87;116.79
71254;HTU21D;59019;47.638;18.966;2023-07-13T02:39:01;18.89;117.72
71254;HTU21D;59019;47.638;18.966;2023-07-13T02:41:48;18.94;117.82
71254;HTU21D;59019;47.638;18.966;2023-07-13T02:44:34;18.93;114.81
71254;HTU21D;59019;47.638;18.966;2023-07-13T02:47:19;18.91;114.56
71254;HTU21D;59019;47.638;18.966;2023-07-13T02:50:06;18.96;113.21
71254;HTU21D;59019;47.638;18.966;2023-07-13T02:52:51;18.91;112.48
71254;HTU21D;59019;47.638;18.966;2023-07-13T02:55:37;18.95;112.94
71254;HTU21D;59019;47.638;18.966;2023-07-13T02:58:23;18.99;112.19
71254;HTU21D;59019;47.638;18.966;2023-07-13T03:01:10;19.05;112.10
71254;HTU21D;59019;47.638;18.966;2023-07-13T03:03:56;18.96;112.23
71254;HTU21D;59019;47.638;18.966;2023-07-13T03:06:42;18.82;112.68
71254;HTU21D;59019;47.638;18.966;2023-07-13T03:09:28;18.88;-5.68
71254;HTU21D;59019;47.638;18.966;2023-07-13T03:12:14;18.96;114.54
71254;HTU21D;59019;47.638;18.966;2023-07-13T03:14:59;19.05;113.25
71254;HTU21D;59019;47.638;18.966;2023-07-13T03:17:45;18.92;112.06
71254;HTU21D;59019;47.638;18.966;2023-07-13T03:20:34;19.03;113.53
71254;HTU21D;59019;47.638;18.966;2023-07-13T03:23:21;19.14;112.37
71254;HTU21D;59019;47.638;18.966;2023-07-13T03:26:16;19.28;112.26
71254;HTU21D;59019;47.638;18.966;2023-07-13T03:29:02;19.36;111.51
71254;HTU21D;59019;47.638;18.966;2023-07-13T03:31:48;19.42;109.32
71254;HTU21D;59019;47.638;18.966;2023-07-13T03:34:34;19.37;109.11
71254;HTU21D;59019;47.638;18.966;2023-07-13T03:37:20;19.42;112.29
71254;HTU21D;59019;47.638;18.966;2023-07-13T03:40:06;19.61;110.71
71254;HTU21D;59019;47.638;18.966;2023-07-13T03:42:54;19.83;110.46
71254;HTU21D;59019;47.638;18.966;2023-07-13T03:45:40;19.85;109.97
71254;HTU21D;59019;47.638;18.966;2023-07-13T03:48:26;20.00;107.91
71254;HTU21D;59019;47.638;18.966;2023-07-13T03:51:13;19.96;105.64
71254;HTU21D;59019;47.638;18.966;2023-07-13T03:54:00;19.96;107.20
71254;HTU21D;59019;47.638;18.966;2023-07-13T03:56:45;19.99;107.74
71254;HTU21D;59019;47.638;18.966;2023-07-13T03:59:31;20.07;107.84
71254;HTU21D;59019;47.638;18.966;2023-07-13T04:02:18;20.17;107.23
71254;HTU21D;59019;47.638;18.966;2023-07-13T04:05:04;20.29;107.01
71254;HTU21D;59019;47.638;18.966;2023-07-13T04:07:50;20.35;106.66
71254;HTU21D;59019;47.638;18.966;2023-07-13T04:10:36;20.43;107.56
71254;HTU21D;59019;47.638;18.966;2023-07-13T04:13:22;20.44;107.37
71254;HTU21D;59019;47.638;18.966;2023-07-13T04:16:08;20.48;107.59
71254;HTU21D;59019;47.638;18.966;2023-07-13T04:18:55;20.47;105.31
71254;HTU21D;59019;47.638;18.966;2023-07-13T04:21:44;20.37;105.82
71254;HTU21D;59019;47.638;18.966;2023-07-13T04:24:31;20.28;107.08
71254;HTU21D;59019;47.638;18.966;2023-07-13T04:27:16;20.27;107.04
71254;HTU21D;59019;47.638;18.966;2023-07-13T04:30:02;20.19;107.24
71254;HTU21D;59019;47.638;18.966;2023-07-13T04:32:51;20.24;106.75
71254;HTU21D;59019;47.638;18.966;2023-07-13T04:35:37;20.15;107.14
71254;HTU21D;59019;47.638;18.966;2023-07-13T04:38:25;20.13;107.26
71254;HTU21D;59019;47.638;18.966;2023-07-13T04:41:13;20.11;107.98
71254;HTU21D;59019;47.638;18.966;2023-07-13T04:44:00;20.06;109.45
71254;HTU21D;59019;47.638;18.966;2023-07-13T04:46:45;20.05;110.45
71254;HTU21D;59019;47.638;18.966;2023-07-13T04:49:31;20.09;110.17
71254;HTU21D;59019;47.638;18.966;2023-07-13T04:52:17;20.15;110.30
71254;HTU21D;59019;47.638;18.966;2023-07-13T04:55:04;20.16;110.75
71254;HTU21D;59019;47.638;18.966;2023-07-13T04:57:50;20.16;110.70
71254;HTU21D;59019;47.638;18.966;2023-07-13T05:00:36;20.13;113.70
71254;HTU21D;59019;47.638;18.966;2023-07-13T05:03:22;20.17;112.95
71254;HTU21D;59019;47.638;18.966;2023-07-13T05:06:08;20.13;114.64
71254;HTU21D;59019;47.638;18.966;2023-07-13T05:08:55;20.22;113.02
71254;HTU21D;59019;47.638;18.966;2023-07-13T05:11:41;20.15;117.42
71254;HTU21D;59019;47.638;18.966;2023-07-13T05:14:27;20.24;117.28
71254;HTU21D;59019;47.638;18.966;2023-07-13T05:17:13;20.18;118.26
71254;HTU21D;59019;47.638;18.966;2023-07-13T05:19:59;20.15;-5.31
71254;HTU21D;59019;47.638;18.966;2023-07-13T05:22:45;20.15;-5.61
71254;HTU21D;59019;47.638;18.966;2023-07-13T05:25:32;20.14;118.36
71254;HTU21D;59019;47.638;18.966;2023-07-13T05:28:18;20.12;117.45
71254;HTU21D;59019;47.638;18.966;2023-07-13T05:31:06;20.18;116.46
71254;HTU21D;59019;47.638;18.966;2023-07-13T05:33:52;20.03;114.88
71254;HTU21D;59019;47.638;18.966;2023-07-13T05:36:38;19.97;116.15
71254;HTU21D;59019;47.638;18.966;2023-07-13T05:39:24;20.00;117.50
71254;HTU21D;59019;47.638;18.966;2023-07-13T05:42:11;19.94;118.47
71254;HTU21D;59019;47.638;18.966;2023-07-13T05:44:57;19.97;117.06
71254;HTU21D;59019;47.638;18.966;2023-07-13T05:47:43;19.94;114.95
71254;HTU21D;59019;47.638;18.966;2023-07-13T05:50:29;19.80;116.22
71254;HTU21D;59019;47.638;18.966;2023-07-13T05:53:15;19.84;113.64
71254;HTU21D;59019;47.638;18.966;2023-07-13T05:56:01;19.76;112.23
71254;HTU21D;59019;47.638;18.966;2023-07-13T05:58:48;19.70;110.95
71254;HTU21D;59019;47.638;18.966;2023-07-13T06:01:34;19.61;111.45
71254;HTU21D;59019;47.638;18.966;2023-07-13T06:04:20;19.62;110.58
71254;HTU21D;59019;47.638;18.966;2023-07-13T06:07:06;19.57;109.49
71254;HTU21D;59019;47.638;18.966;2023-07-13T06:09:52;19.47;109.51
71254;HTU21D;59019;47.638;18.966;2023-07-13T06:12:37;19.48;111.95
71254;HTU21D;59019;47.638;18.966;2023-07-13T06:15:23;19.41;110.46
71254;HTU21D;59019;47.638;18.966;2023-07-13T06:18:09;19.53;108.34
71254;HTU21D;59019;47.638;18.966;2023-07-13T06:20:55;19.53;109.61
71254;HTU21D;59019;47.638;18.966;2023-07-13T06:23:41;19.56;106.48
71254;HTU21D;59019;47.638;18.966;2023-07-13T06:26:27;19.45;107.50
71254;HTU21D;59019;47.638;18.966;2023-07-13T06:29:13;19.35;106.79
71254;HTU21D;59019;47.638;18.966;2023-07-13T06:31:59;19.11;110.24
71254;HTU21D;59019;47.638;18.966;2023-07-13T06:34:45;19.20;107.26
71254;HTU21D;59019;47.638;18.966;2023-07-13T06:37:31;19.40;105.13
71254;HTU21D;59019;47.638;18.966;2023-07-13T06:40:17;19.74;103.96
71254;HTU21D;59019;47.638;18.966;2023-07-13T06:43:04;19.74;104.06
71254;HTU21D;59019;47.638;18.966;2023-07-13T06:45:50;19.95;104.31
71254;HTU21D;59019;47.638;18.966;2023-07-13T06:48:36;20.39;105.29
71254;HTU21D;59019;47.638;18.966;2023-07-13T06:51:22;21.05;99.29
71254;HTU21D;59019;47.638;18.966;2023-07-13T06:54:08;21.33;99.31
71254;HTU21D;59019;47.638;18.966;2023-07-13T06:56:53;21.68;97.79
71254;HTU21D;59019;47.638;18.966;2023-07-13T06:59:39;21.70;100.08
71254;HTU21D;59019;47.638;18.966;2023-07-13T07:02:25;22.41;99.74
71254;HTU21D;59019;47.638;18.966;2023-07-13T07:05:11;22.51;96.84
71254;HTU21D;59019;47.638;18.966;2023-07-13T07:07:57;23.35;96.08
71254;HTU21D;59019;47.638;18.966;2023-07-13T07:10:43;23.58;91.76
71254;HTU21D;59019;47.638;18.966;2023-07-13T07:13:29;23.89;91.61
71254;HTU21D;59019;47.638;18.966;2023-07-13T07:16:16;23.77;91.76
71254;HTU21D;59019;47.638;18.966;2023-07-13T07:19:02;23.81;90.95
71254;HTU21D;59019;47.638;18.966;2023-07-13T07:21:48;24.13;91.81
71254;HTU21D;59019;47.638;18.966;2023-07-13T07:24:34;23.75;90.95
71254;HTU21D;59019;47.638;18.966;2023-07-13T07:27:20;23.55;91.82
71254;HTU21D;59019;47.638;18.966;2023-07-13T07:30:06;23.60;91.43
71254;HTU21D;59019;47.638;18.966;2023-07-13T07:32:52;23.46;91.06
71254;HTU21D;59019;47.638;18.966;2023-07-13T07:35:38;23.73;91.04
71254;HTU21D;59019;47.638;18.966;2023-07-13T07:38:24;23.79;90.24
71254;HTU21D;59019;47.638;18.966;2023-07-13T07:41:11;23.67;90.34
71254;HTU21D;59019;47.638;18.966;2023-07-13T07:43:57;23.98;90.98
71254;HTU21D;59019;47.638;18.966;2023-07-13T07:46:42;24.33;89.82
71254;HTU21D;59019;47.638;18.966;2023-07-13T07:49:28;24.55;88.49
71254;HTU21D;59019;47.638;18.966;2023-07-13T07:52:14;24.88;87.24
71254;HTU21D;59019;47.638;18.966;2023-07-13T07:55:00;24.59;87.51
71254;HTU21D;59019;47.638;18.966;2023-07-13T07:57:46;25.00;86.21
71254;HTU21D;59019;47.638;18.966;2023-07-13T08:00:32;25.63;85.62
71254;HTU21D;59019;47.638;18.966;2023-07-13T08:03:18;26.46;84.01
71254;HTU21D;59019;47.638;18.966;2023-07-13T08:06:04;27.17;82.39
71254;HTU21D;59019;47.638;18.966;2023-07-13T08:08:50;27.30;79.70
71254;HTU21D;59019;47.638;18.966;2023-07-13T08:11:36;27.22;80.43
71254;HTU21D;59019;47.638;18.966;2023-07-13T08:14:22;27.17;81.30
71254;HTU21D;59019;47.638;18.966;2023-07-13T08:17:08;27.28;79.59
71254;HTU21D;59019;47.638;18.966;2023-07-13T08:19:53;27.22;80.02
71254;HTU21D;59019;47.638;18.966;2023-07-13T08:22:39;27.11;79.91
71254;HTU21D;59019;47.638;18.966;2023-07-13T08:25:25;27.38;80.20
71254;HTU21D;59019;47.638;18.966;2023-07-13T08:28:11;28.00;78.35
71254;HTU21D;59019;47.638;18.966;2023-07-13T08:31:02;28.42;77.42
71254;HTU21D;59019;47.638;18.966;2023-07-13T08:33:48;28.70;76.36
71254;HTU21D;59019;47.638;18.966;2023-07-13T08:36:34;28.86;75.99
71254;HTU21D;59019;47.638;18.966;2023-07-13T08:39:19;29.21;74.86
71254;HTU21D;59019;47.638;18.966;2023-07-13T08:48:11;29.37;73.48
71254;HTU21D;59019;47.638;18.966;2023-07-13T08:51:09;29.50;73.09
71254;HTU21D;59019;47.638;18.966;2023-07-13T08:54:01;29.63;72.82
71254;HTU21D;59019;47.638;18.966;2023-07-13T08:56:49;29.65;71.93
71254;HTU21D;59019;47.638;18.966;2023-07-13T08:59:38;30.02;71.68
71254;HTU21D;59019;47.638;18.966;2023-07-13T09:02:46;29.85;71.48
71254;HTU21D;59019;47.638;18.966;2023-07-13T09:05:36;30.17;69.83
71254;HTU21D;59019;47.638;18.966;2023-07-13T09:11:36;30.51;68.44
71254;HTU21D;59019;47.638;18.966;2023-07-13T09:14:43;30.30;67.97
71254;HTU21D;59019;47.638;18.966;2023-07-13T09:17:38;31.05;67.48
71254;HTU21D;59019;47.638;18.966;2023-07-13T09:20:35;30.70;67.01
71254;HTU21D;59019;47.638;18.966;2023-07-13T09:23:26;30.56;66.43
71254;HTU21D;59019;47.638;18.966;2023-07-13T09:26:19;29.92;68.22
71254;HTU21D;59019;47.638;18.966;2023-07-13T09:29:23;29.97;68.87
71254;HTU21D;59019;47.638;18.966;2023-07-13T09:32:12;29.43;68.65
71254;HTU21D;59019;47.638;18.966;2023-07-13T09:35:00;29.32;69.58
71254;HTU21D;59019;47.638;18.966;2023-07-13T09:37:47;29.06;70.90
71254;HTU21D;59019;47.638;18.966;2023-07-13T09:46:55;28.27;72.23
71254;HTU21D;59019;47.638;18.966;2023-07-13T09:49:41;28.32;72.79
71254;HTU21D;59019;47.638;18.966;2023-07-13T09:52:55;28.40;73.22
71254;HTU21D;59019;47.638;18.966;2023-07-13T09:55:46;28.63;71.77
71254;HTU21D;59019;47.638;18.966;2023-07-13T09:58:35;29.61;70.09
71254;HTU21D;59019;47.638;18.966;2023-07-13T10:01:38;30.35;68.30
71254;HTU21D;59019;47.638;18.966;2023-07-13T10:04:34;30.47;67.75
71254;HTU21D;59019;47.638;18.966;2023-07-13T10:07:22;30.15;67.01
71254;HTU21D;59019;47.638;18.966;2023-07-13T10:10:18;29.81;68.39
71254;HTU21D;59019;47.638;18.966;2023-07-13T10:13:08;29.58;69.48
71254;HTU21D;59019;47.638;18.966;2023-07-13T10:16:06;30.30;67.81
71254;HTU21D;59019;47.638;18.966;2023-07-13T10:18:56;30.86;66.94
71254;HTU21D;59019;47.638;18.966;2023-07-13T10:24:37;30.94;66.17
71254;HTU21D;59019;47.638;18.966;2023-07-13T10:27:34;31.33;64.67
71254;HTU21D;59019;47.638;18.966;2023-07-13T10:30:27;30.70;64.94
71254;HTU21D;59019;47.638;18.966;2023-07-13T10:33:15;30.66;65.43
71254;HTU21D;59019;47.638;18.966;2023-07-13T10:36:28;30.95;64.53
71254;HTU21D;59019;47.638;18.966;2023-07-13T10:39:23;30.78;65.40
71254;HTU21D;59019;47.638;18.966;2023-07-13T10:42:15;31.01;64.69
71254;HTU21D;59019;47.638;18.966;2023-07-13T10:45:21;30.31;63.47
71254;HTU21D;59019;47.638;18.966;2023-07-13T10:48:12;30.54;64.76
71254;HTU21D;59019;47.638;18.966;2023-07-13T10:50:59;31.40;63.43
71254;HTU21D;59019;47.638;18.966;2023-07-13T10:53:48;31.64;63.00
71254;HTU21D;59019;47.638;18.966;2023-07-13T10:57:19;32.28;60.99
71254;HTU21D;59019;47.638;18.966;2023-07-13T11:00:17;32.12;61.24
71254;HTU21D;59019;47.638;18.966;2023-07-13T11:03:04;32.76;60.15
71254;HTU21D;59019;47.638;18.966;2023-07-13T11:05:51;32.45;59.04
71254;HTU21D;59019;47.638;18.966;2023-07-13T11:08:54;32.60;60.17
71254;HTU21D;59019;47.638;18.966;2023-07-13T11:11:41;32.56;59.54
71254;HTU21D;59019;47.638;18.966;2023-07-13T11:15:10;32.49;58.09
71254;HTU21D;59019;47.638;18.966;2023-07-13T11:17:54;32.64;58.68
71254;HTU21D;59019;47.638;18.966;2023-07-13T11:20:48;32.44;60.13
71254;HTU21D;59019;47.638;18.966;2023-07-13T11:23:42;32.91;58.99
71254;HTU21D;59019;47.638;18.966;2023-07-13T11:29:37;33.11;57.22
71254;HTU21D;59019;47.638;18.966;2023-07-13T11:32:31;32.39;57.71
71254;HTU21D;59019;47.638;18.966;2023-07-13T11:35:22;32.24;59.29
71254;HTU21D;59019;47.638;18.966;2023-07-13T11:38:19;32.68;59.03
71254;HTU21D;59019;47.638;18.966;2023-07-13T11:41:17;32.85;58.94
71254;HTU21D;59019;47.638;18.966;2023-07-13T11:44:12;32.26;59.24
71254;HTU21D;59019;47.638;18.966;2023-07-13T11:47:09;31.72;60.66
71254;HTU21D;59019;47.638;18.966;2023-07-13T11:49:55;31.83;59.50
71254;HTU21D;59019;47.638;18.966;2023-07-13T11:52:43;31.57;60.14
71254;HTU21D;59019;47.638;18.966;2023-07-13T11:55:29;32.19;59.26
71254;HTU21D;59019;47.638;18.966;2023-07-13T11:58:20;32.14;58.03
71254;HTU21D;59019;47.638;18.966;2023-07-13T12:01:10;31.28;60.75
71254;HTU21D;59019;47.638;18.966;2023-07-13T12:04:02;31.58;59.79
71254;HTU21D;59019;47.638;18.966;2023-07-13T12:06:54;31.90;59.35
71254;HTU21D;59019;47.638;18.966;2023-07-13T12:09:41;31.90;58.78
71254;HTU21D;59019;47.638;18.966;2023-07-13T12:12:28;32.09;58.83
71254;HTU21D;59019;47.638;18.966;2023-07-13T12:15:15;32.43;58.36
71254;HTU21D;59019;47.638;18.966;2023-07-13T12:18:01;32.62;57.07
71254;HTU21D;59019;47.638;18.966;2023-07-13T12:20:48;32.82;56.78
71254;HTU21D;59019;47.638;18.966;2023-07-13T12:23:35;32.42;57.57
71254;HTU21D;59019;47.638;18.966;2023-07-13T12:26:21;32.73;57.64
71254;HTU21D;59019;47.638;18.966;2023-07-13T12:29:07;32.75;58.25
71254;HTU21D;59019;47.638;18.966;2023-07-13T12:31:53;32.70;57.52
71254;HTU21D;59019;47.638;18.966;2023-07-13T12:34:55;32.53;57.24
71254;HTU21D;59019;47.638;18.966;2023-07-13T12:37:43;32.57;58.26
71254;HTU21D;59019;47.638;18.966;2023-07-13T12:40:33;32.84;57.09
71254;HTU21D;59019;47.638;18.966;2023-07-13T12:43:20;32.99;56.60
71254;HTU21D;59019;47.638;18.966;2023-07-13T12:46:21;32.58;58.22
71254;HTU21D;59019;47.638;18.966;2023-07-13T12:49:13;32.91;57.48
71254;HTU21D;59019;47.638;18.966;2023-07-13T12:52:01;33.47;57.45
71254;HTU21D;59019;47.638;18.966;2023-07-13T12:54:55;32.58;58.13
71254;HTU21D;59019;47.638;18.966;2023-07-13T12:57:57;33.29;55.74
71254;HTU21D;59019;47.638;18.966;2023-07-13T13:00:49;33.73;55.04
71254;HTU21D;59019;47.638;18.966;2023-07-13T13:03:46;33.53;55.97
71254;HTU21D;59019;47.638;18.966;2023-07-13T13:06:33;33.41;56.29
71254;HTU21D;59019;47.638;18.966;2023-07-13T13:09:21;33.38;55.37
71254;HTU21D;59019;47.638;18.966;2023-07-13T13:12:09;33.19;55.97
71254;HTU21D;59019;47.638;18.966;2023-07-13T13:14:55;32.53;56.16
71254;HTU21D;59019;47.638;18.966;2023-07-13T13:17:42;32.81;57.09
71254;HTU21D;59019;47.638;18.966;2023-07-13T13:20:28;32.85;56.73
71254;HTU21D;59019;47.638;18.966;2023-07-13T13:23:18;32.68;56.29
71254;HTU21D;59019;47.638;18.966;2023-07-13T13:26:13;32.75;57.83
71254;HTU21D;59019;47.638;18.966;2023-07-13T13:28:58;33.38;57.71
71254;HTU21D;59019;47.638;18.966;2023-07-13T13:31:45;33.91;55.86
71254;HTU21D;59019;47.638;18.966;2023-07-13T13:34:31;33.65;55.64
71254;HTU21D;59019;47.638;18.966;2023-07-13T13:37:21;32.68;56.74
71254;HTU21D;59019;47.638;18.966;2023-07-13T13:40:19;32.56;58.16
71254;HTU21D;59019;47.638;18.966;2023-07-13T13:46:18;31.68;59.83
71254;HTU21D;59019;47.638;18.966;2023-07-13T13:49:04;30.99;61.49
71254;HTU21D;59019;47.638;18.966;2023-07-13T13:51:51;31.29;61.42
71254;HTU21D;59019;47.638;18.966;2023-07-13T13:54:37;31.99;60.36
71254;HTU21D;59019;47.638;18.966;2023-07-13T13:57:25;32.25;58.99
71254;HTU21D;59019;47.638;18.966;2023-07-13T14:00:12;32.19;59.16
71254;HTU21D;59019;47.638;18.966;2023-07-13T14:03:00;31.97;59.31
71254;HTU21D;59019;47.638;18.966;2023-07-13T14:05:46;31.89;59.28
71254;HTU21D;59019;47.638;18.966;2023-07-13T14:08:32;31.68;61.04
71254;HTU21D;59019;47.638;18.966;2023-07-13T14:11:20;31.82;59.13
71254;HTU21D;59019;47.638;18.966;2023-07-13T14:14:07;31.56;60.77
71254;HTU21D;59019;47.638;18.966;2023-07-13T14:16:55;31.37;59.94
71254;HTU21D;59019;47.638;18.966;2023-07-13T14:19:42;30.80;61.52
71254;HTU21D;59019;47.638;18.966;2023-07-13T14:22:27;30.44;61.43
71254;HTU21D;59019;47.638;18.966;2023-07-13T14:25:15;30.36;62.38
71254;HTU21D;59019;47.638;18.966;2023-07-13T14:28:29;30.50;62.57
71254;HTU21D;59019;47.638;18.966;2023-07-13T14:31:17;30.21;63.85
71254;HTU21D;59019;47.638;18.966;2023-07-13T14:34:02;30.34;62.63
71254;HTU21D;59019;47.638;18.966;2023-07-13T14:36:49;30.07;63.56
71254;HTU21D;59019;47.638;18.966;2023-07-13T14:39:36;29.72;65.37
71254;HTU21D;59019;47.638;18.966;2023-07-13T14:42:21;29.97;63.89
71254;HTU21D;59019;47.638;18.966;2023-07-13T14:45:15;29.63;63.19
71254;HTU21D;59019;47.638;18.966;2023-07-13T14:48:01;29.79;63.61
71254;HTU21D;59019;47.638;18.966;2023-07-13T14:50:55;29.92;63.15
71254;HTU21D;59019;47.638;18.966;2023-07-13T14:53:41;29.82;62.45
71254;HTU21D;59019;47.638;18.966;2023-07-13T14:56:27;29.78;62.92
71254;HTU21D;59019;47.638;18.966;2023-07-13T14:59:13;29.85;62.97
71254;HTU21D;59019;47.638;18.966;2023-07-13T15:01:59;29.88;62.45
71254;HTU21D;59019;47.638;18.966;2023-07-13T15:04:45;29.75;62.57
71254;HTU21D;59019;47.638;18.966;2023-07-13T15:07:31;29.42;63.04
71254;HTU21D;59019;47.638;18.966;2023-07-13T15:10:19;29.63;63.18
71254;HTU21D;59019;47.638;18.966;2023-07-13T15:13:17;29.77;63.66
71254;HTU21D;59019;47.638;18.966;2023-07-13T15:16:03;29.86;63.04
71254;HTU21D;59019;47.638;18.966;2023-07-13T15:18:50;29.76;62.72
71254;HTU21D;59019;47.638;18.966;2023-07-13T15:21:37;29.63;62.77
71254;HTU21D;59019;47.638;18.966;2023-07-13T15:24:23;29.60;63.09
71254;HTU21D;59019;47.638;18.966;2023-07-13T15:27:11;29.65;63.19
71254;HTU21D;59019;47.638;18.966;2023-07-13T15:29:57;29.63;62.23
71254;HTU21D;59019;47.638;18.966;2023-07-13T15:32:44;29.48;62.97
71254;HTU21D;59019;47.638;18.966;2023-07-13T15:35:30;29.34;63.40
71254;HTU21D;59019;47.638;18.966;2023-07-13T15:41:27;29.18;64.01
71254;HTU21D;59019;47.638;18.966;2023-07-13T15:44:26;29.02;64.42
71254;HTU21D;59019;47.638;18.966;2023-07-13T15:47:14;29.00;65.43
71254;HTU21D;59019;47.638;18.966;2023-07-13T15:50:00;28.88;65.78
71254;HTU21D;59019;47.638;18.966;2023-07-13T15:52:54;28.76;65.49
71254;HTU21D;59019;47.638;18.966;2023-07-13T15:55:41;28.69;66.10
71254;HTU21D;59019;47.638;18.966;2023-07-13T15:58:27;28.65;65.76
71254;HTU21D;59019;47.638;18.966;2023-07-13T16:01:14;28.61;66.88
71254;HTU21D;59019;47.638;18.966;2023-07-13T16:04:00;28.50;66.39
71254;HTU21D;59019;47.638;18.966;2023-07-13T16:06:46;28.52;68.80
71254;HTU21D;59019;47.638;18.966;2023-07-13T16:09:32;28.49;69.69
71254;HTU21D;59019;47.638;18.966;2023-07-13T16:12:18;28.42;70.80
71254;HTU21D;59019;47.638;18.966;2023-07-13T16:15:16;28.37;73.22
71254;HTU21D;59019;47.638;18.966;2023-07-13T16:18:04;28.13;72.03
71254;HTU21D;59019;47.638;18.966;2023-07-13T16:20:50;27.90;73.70
71254;HTU21D;59019;47.638;18.966;2023-07-13T16:23:36;27.89;75.03
71254;HTU21D;59019;47.638;18.966;2023-07-13T16:26:30;27.84;74.44
71254;HTU21D;59019;47.638;18.966;2023-07-13T16:29:27;27.64;74.63
71254;HTU21D;59019;47.638;18.966;2023-07-13T16:32:13;27.65;76.68
71254;HTU21D;59019;47.638;18.966;2023-07-13T16:34:59;27.55;78.02
71254;HTU21D;59019;47.638;18.966;2023-07-13T16:37:45;27.39;79.46
71254;HTU21D;59019;47.638;18.966;2023-07-13T16:40:34;27.22;79.85
71254;HTU21D;59019;47.638;18.966;2023-07-13T16:43:20;27.13;79.71
71254;HTU21D;59019;47.638;18.966;2023-07-13T16:46:11;26.94;80.81
71254;HTU21D;59019;47.638;18.966;2023-07-13T16:49:00;26.75;81.72
71254;HTU21D;59019;47.638;18.966;2023-07-13T16:51:47;26.64;82.49
71254;HTU21D;59019;47.638;18.966;2023-07-13T16:54:35;26.62;83.43
71254;HTU21D;59019;47.638;18.966;2023-07-13T16:57:25;26.51;83.44
71254;HTU21D;59019;47.638;18.966;2023-07-13T17:00:24;26.39;83.89
71254;HTU21D;59019;47.638;18.966;2023-07-13T17:03:14;26.31;84.22
71254;HTU21D;59019;47.638;18.966;2023-07-13T17:06:08;26.24;84.53
71254;HTU21D;59019;47.638;18.966;2023-07-13T17:08:57;26.10;84.96
71254;HTU21D;59019;47.638;18.966;2023-07-13T17:11:45;25.94;85.22
71254;HTU21D;59019;47.638;18.966;2023-07-13T17:14:31;25.83;85.08
71254;HTU21D;59019;47.638;18.966;2023-07-13T17:17:32;25.71;85.19
71254;HTU21D;59019;47.638;18.966;2023-07-13T17:20:21;25.61;85.08
71254;HTU21D;59019;47.638;18.966;2023-07-13T17:23:23;25.46;85.09
71254;HTU21D;59019;47.638;18.966;2023-07-13T17:26:09;25.34;85.22
71254;HTU21D;59019;47.638;18.966;2023-07-13T17:28:55;25.37;85.06
71254;HTU21D;59019;47.638;18.966;2023-07-13T17:31:41;25.33;86.27
71254;HTU21D;59019;47.638;18.966;2023-07-13T17:34:28;25.30;85.54
71254;HTU21D;59019;47.638;18.966;2023-07-13T17:37:16;25.29;85.59